createdAt,value
2018-05-15T00:00:29.611Z,929.87
2018-05-15T00:01:29.609Z,929.86
2018-05-15T00:02:29.609Z,929.83
2018-05-15T00:03:29.609Z,929.80
2018-05-15T00:04:29.607Z,929.82
2018-05-15T00:05:29.605Z,929.82
2018-05-15T00:06:29.605Z,929.81
2018-05-15T00:07:29.604Z,929.82
2018-05-15T00:08:29.606Z,929.84
2018-05-15T00:09:29.602Z,929.83
2018-05-15T00:10:29.602Z,929.84
2018-05-15T00:11:29.600Z,929.85
2018-05-15T00:12:29.599Z,929.88
2018-05-15T00:13:29.600Z,929.88
2018-05-15T00:14:29.598Z,929.83
2018-05-15T00:15:29.597Z,929.84
2018-05-15T00:16:29.597Z,929.81
2018-05-15T00:17:29.594Z,929.83
2018-05-15T00:18:29.594Z,929.83
2018-05-15T00:19:29.593Z,929.83
2018-05-15T00:20:29.591Z,929.80
2018-05-15T00:21:29.590Z,929.81
2018-05-15T00:22:29.592Z,929.82
2018-05-15T00:23:29.589Z,929.76
2018-05-15T00:24:29.588Z,929.71
2018-05-15T00:25:29.586Z,929.75
2018-05-15T00:26:29.588Z,929.73
2018-05-15T00:27:29.586Z,929.79
2018-05-15T00:28:29.586Z,929.79
2018-05-15T00:29:29.584Z,929.82
2018-05-15T00:30:29.583Z,929.87
2018-05-15T00:31:29.583Z,929.80
2018-05-15T00:32:29.584Z,929.79
2018-05-15T00:33:29.582Z,929.75
2018-05-15T00:34:29.580Z,929.76
2018-05-15T00:35:29.581Z,929.72
2018-05-15T00:36:29.580Z,929.72
2018-05-15T00:37:29.579Z,929.73
2018-05-15T00:38:29.583Z,929.71
2018-05-15T00:39:29.578Z,929.66
2018-05-15T00:40:29.578Z,929.67
2018-05-15T00:41:29.580Z,929.69
2018-05-15T00:42:29.578Z,929.67
2018-05-15T00:43:29.575Z,929.68
2018-05-15T00:44:29.574Z,929.67
2018-05-15T00:45:29.576Z,929.63
2018-05-15T00:46:29.572Z,929.62
2018-05-15T00:47:29.571Z,929.58
2018-05-15T00:48:29.571Z,929.59
2018-05-15T00:49:29.569Z,929.57
2018-05-15T00:50:29.569Z,929.57
2018-05-15T00:51:29.569Z,929.55
2018-05-15T00:52:29.567Z,929.59
2018-05-15T00:53:29.567Z,929.56
2018-05-15T00:54:29.566Z,929.60
2018-05-15T00:55:29.564Z,929.60
2018-05-15T00:56:29.567Z,929.58
2018-05-15T00:57:29.564Z,929.50
2018-05-15T00:58:29.563Z,929.50
2018-05-15T00:59:29.563Z,929.50
2018-05-15T01:00:29.562Z,929.50
2018-05-15T01:01:29.561Z,929.52
2018-05-15T01:02:29.560Z,929.50
2018-05-15T01:03:29.560Z,929.51
2018-05-15T01:04:29.559Z,929.51
2018-05-15T01:05:29.557Z,929.52
2018-05-15T01:06:29.556Z,929.55
2018-05-15T01:07:29.556Z,929.52
2018-05-15T01:08:29.554Z,929.54
2018-05-15T01:09:29.553Z,929.58
2018-05-15T01:10:29.553Z,929.60
2018-05-15T01:11:29.553Z,929.61
2018-05-15T01:12:29.555Z,929.61
2018-05-15T01:13:29.550Z,929.62
2018-05-15T01:14:29.551Z,929.66
2018-05-15T01:15:29.550Z,929.64
2018-05-15T01:16:29.548Z,929.63
2018-05-15T01:17:29.547Z,929.62
2018-05-15T01:18:29.547Z,929.64
2018-05-15T01:19:29.551Z,929.66
2018-05-15T01:20:29.547Z,929.68
2018-05-15T01:21:29.544Z,929.64
2018-05-15T01:22:29.543Z,929.69
2018-05-15T01:23:29.543Z,929.67
2018-05-15T01:24:29.541Z,929.71
2018-05-15T01:25:29.541Z,929.73
2018-05-15T01:26:29.541Z,929.70
2018-05-15T01:27:29.539Z,929.73
2018-05-15T01:28:29.538Z,929.71
2018-05-15T01:29:29.537Z,929.75
2018-05-15T01:30:29.535Z,929.78
2018-05-15T01:31:29.537Z,929.74
2018-05-15T01:32:29.534Z,929.71
2018-05-15T01:33:29.532Z,929.73
2018-05-15T01:34:29.535Z,929.68
2018-05-15T01:35:29.533Z,929.68
2018-05-15T01:36:29.532Z,929.68
2018-05-15T01:37:29.530Z,929.68
2018-05-15T01:38:29.528Z,929.68
2018-05-15T01:39:29.531Z,929.71
2018-05-15T01:40:29.527Z,929.70
2018-05-15T01:41:29.525Z,929.66
2018-05-15T01:42:29.526Z,929.68
2018-05-15T01:43:29.525Z,929.65
2018-05-15T01:44:29.522Z,929.67
2018-05-15T01:45:29.522Z,929.67
2018-05-15T01:46:29.521Z,929.67
2018-05-15T01:47:29.519Z,929.69
2018-05-15T01:48:29.520Z,929.70
2018-05-15T01:49:29.517Z,929.68
2018-05-15T01:50:29.516Z,929.73
2018-05-15T01:51:29.516Z,929.72
2018-05-15T01:52:29.515Z,929.72
2018-05-15T01:53:29.526Z,929.72
2018-05-15T01:54:29.514Z,929.76
2018-05-15T01:55:29.512Z,929.76
2018-05-15T01:56:29.513Z,929.72
2018-05-15T01:57:29.508Z,929.75
2018-05-15T01:58:29.508Z,929.77
2018-05-15T01:59:29.506Z,929.72
2018-05-15T02:00:29.506Z,929.76
2018-05-15T02:01:29.503Z,929.79
2018-05-15T02:02:29.503Z,929.74
2018-05-15T02:03:29.502Z,929.77
2018-05-15T02:04:29.502Z,929.79
2018-05-15T02:05:29.500Z,929.79
2018-05-15T02:06:29.498Z,929.80
2018-05-15T02:07:29.498Z,929.80
2018-05-15T02:08:29.498Z,929.79
2018-05-15T02:09:29.496Z,929.82
2018-05-15T02:10:29.498Z,929.80
2018-05-15T02:11:29.495Z,929.84
2018-05-15T02:12:29.494Z,929.85
2018-05-15T02:13:29.491Z,929.83
2018-05-15T02:14:29.491Z,929.83
2018-05-15T02:15:29.489Z,929.86
2018-05-15T02:16:29.488Z,929.83
2018-05-15T02:17:29.486Z,929.80
2018-05-15T02:18:29.487Z,929.81
2018-05-15T02:19:29.485Z,929.78
2018-05-15T02:20:29.484Z,929.77
2018-05-15T02:21:29.482Z,929.75
2018-05-15T02:22:29.483Z,929.77
2018-05-15T02:23:29.483Z,929.71
2018-05-15T02:24:29.482Z,929.71
2018-05-15T02:25:29.480Z,929.74
2018-05-15T02:26:29.479Z,929.67
2018-05-15T02:27:29.478Z,929.65
2018-05-15T02:28:29.478Z,929.65
2018-05-15T02:29:29.476Z,929.64
2018-05-15T02:30:29.486Z,929.69
2018-05-15T02:31:29.476Z,929.71
2018-05-15T02:32:29.474Z,929.68
2018-05-15T02:33:29.484Z,929.66
2018-05-15T02:34:29.473Z,929.62
2018-05-15T02:35:29.471Z,929.62
2018-05-15T02:36:29.471Z,929.59
2018-05-15T02:37:29.469Z,929.62
2018-05-15T02:38:29.468Z,929.61
2018-05-15T02:39:29.469Z,929.59
2018-05-15T02:40:29.468Z,929.61
2018-05-15T02:41:29.465Z,929.59
2018-05-15T02:42:29.465Z,929.59
2018-05-15T02:43:29.464Z,929.58
2018-05-15T02:44:29.464Z,929.62
2018-05-15T02:45:29.462Z,929.56
2018-05-15T02:46:29.464Z,929.56
2018-05-15T02:47:29.461Z,929.57
2018-05-15T02:48:29.460Z,929.55
2018-05-15T02:49:29.459Z,929.57
2018-05-15T02:50:29.459Z,929.56
2018-05-15T02:51:29.458Z,929.55
2018-05-15T02:52:29.457Z,929.55
2018-05-15T02:53:29.456Z,929.53
2018-05-15T02:54:29.456Z,929.55
2018-05-15T02:55:29.453Z,929.56
2018-05-15T02:56:29.465Z,929.52
2018-05-15T02:57:29.452Z,929.60
2018-05-15T02:58:29.451Z,929.60
2018-05-15T02:59:29.455Z,929.56
2018-05-15T03:00:29.450Z,929.60
2018-05-15T03:01:29.449Z,929.60
2018-05-15T03:02:29.448Z,929.61
2018-05-15T03:03:29.447Z,929.58
2018-05-15T03:04:29.445Z,929.60
2018-05-15T03:05:29.447Z,929.61
2018-05-15T03:06:29.446Z,929.59
2018-05-15T03:07:29.448Z,929.61
2018-05-15T03:08:29.442Z,929.60
2018-05-15T03:09:29.445Z,929.61
2018-05-15T03:10:29.443Z,929.59
2018-05-15T03:11:29.440Z,929.63
2018-05-15T03:12:29.439Z,929.61
2018-05-15T03:13:29.438Z,929.62
2018-05-15T03:14:29.436Z,929.64
2018-05-15T03:15:29.435Z,929.67
2018-05-15T03:16:29.436Z,929.64
2018-05-15T03:17:29.433Z,929.68
2018-05-15T03:18:29.433Z,929.65
2018-05-15T03:19:29.433Z,929.63
2018-05-15T03:20:29.432Z,929.68
2018-05-15T03:21:29.429Z,929.67
2018-05-15T03:22:29.430Z,929.67
2018-05-15T03:23:29.427Z,929.69
2018-05-15T03:24:29.429Z,929.76
2018-05-15T03:25:29.426Z,929.76
2018-05-15T03:26:29.424Z,929.77
2018-05-15T03:27:29.426Z,929.76
2018-05-15T03:28:29.465Z,929.81
2018-05-15T03:29:29.423Z,929.78
2018-05-15T03:30:29.422Z,929.82
2018-05-15T03:31:29.420Z,929.83
2018-05-15T03:32:29.420Z,929.84
2018-05-15T03:33:29.419Z,929.81
2018-05-15T03:34:29.418Z,929.79
2018-05-15T03:35:29.417Z,929.78
2018-05-15T03:36:29.416Z,929.79
2018-05-15T03:37:29.416Z,929.78
2018-05-15T03:38:29.414Z,929.76
2018-05-15T03:39:29.413Z,929.74
2018-05-15T03:40:29.415Z,929.77
2018-05-15T03:41:29.409Z,929.75
2018-05-15T03:42:29.410Z,929.71
2018-05-15T03:43:29.408Z,929.72
2018-05-15T03:44:29.408Z,929.71
2018-05-15T03:45:29.407Z,929.70
2018-05-15T03:46:29.405Z,929.73
2018-05-15T03:47:29.494Z,929.72
2018-05-15T03:48:29.405Z,929.79
2018-05-15T03:49:29.401Z,929.83
2018-05-15T03:50:29.402Z,929.81
2018-05-15T03:51:29.399Z,929.81
2018-05-15T03:52:29.402Z,929.85
2018-05-15T03:53:29.398Z,929.88
2018-05-15T03:54:29.396Z,929.92
2018-05-15T03:55:29.395Z,929.95
2018-05-15T03:56:29.394Z,929.96
2018-05-15T03:57:29.391Z,929.98
2018-05-15T03:58:29.391Z,929.91
2018-05-15T03:59:29.390Z,929.95
2018-05-15T04:00:29.389Z,930.01
2018-05-15T04:01:29.386Z,930.00
2018-05-15T04:02:29.390Z,930.04
2018-05-15T04:03:29.386Z,930.02
2018-05-15T04:04:29.383Z,930.06
2018-05-15T04:05:29.380Z,930.09
2018-05-15T04:06:29.379Z,930.09
2018-05-15T04:07:29.378Z,930.13
2018-05-15T04:08:29.384Z,930.16
2018-05-15T04:09:29.375Z,930.14
2018-05-15T04:10:29.373Z,930.16
2018-05-15T04:11:29.373Z,930.16
2018-05-15T04:12:29.375Z,930.13
2018-05-15T04:13:29.371Z,930.17
2018-05-15T04:14:29.368Z,930.21
2018-05-15T04:15:29.367Z,930.22
2018-05-15T04:16:29.367Z,930.23
2018-05-15T04:17:29.365Z,930.20
2018-05-15T04:18:29.362Z,930.24
2018-05-15T04:19:29.364Z,930.24
2018-05-15T04:20:29.366Z,930.25
2018-05-15T04:21:29.358Z,930.24
2018-05-15T04:22:29.358Z,930.25
2018-05-15T04:23:29.356Z,930.29
2018-05-15T04:24:29.355Z,930.24
2018-05-15T04:25:29.356Z,930.27
2018-05-15T04:26:29.351Z,930.31
2018-05-15T04:27:29.352Z,930.26
2018-05-15T04:28:29.412Z,930.32
2018-05-15T04:29:29.347Z,930.32
2018-05-15T04:30:29.348Z,930.31
2018-05-15T04:31:29.346Z,930.33
2018-05-15T04:32:29.346Z,930.36
2018-05-15T04:33:29.343Z,930.42
2018-05-15T04:34:29.343Z,930.37
2018-05-15T04:35:29.340Z,930.41
2018-05-15T04:36:29.340Z,930.41
2018-05-15T04:37:29.338Z,930.45
2018-05-15T04:38:29.339Z,930.44
2018-05-15T04:39:29.335Z,930.47
2018-05-15T04:40:29.334Z,930.51
2018-05-15T04:41:29.332Z,930.53
2018-05-15T04:42:29.336Z,930.57
2018-05-15T04:43:29.349Z,930.56
2018-05-15T04:44:29.330Z,930.55
2018-05-15T04:45:29.328Z,930.55
2018-05-15T04:46:29.327Z,930.58
2018-05-15T04:47:29.326Z,930.62
2018-05-15T04:48:29.325Z,930.58
2018-05-15T04:49:29.323Z,930.58
2018-05-15T04:50:29.325Z,930.58
2018-05-15T04:51:29.322Z,930.59
2018-05-15T04:52:29.320Z,930.64
2018-05-15T04:53:29.319Z,930.61
2018-05-15T04:54:29.317Z,930.59
2018-05-15T04:55:29.317Z,930.66
2018-05-15T04:56:29.323Z,930.59
2018-05-15T04:57:29.314Z,930.60
2018-05-15T04:58:29.314Z,930.63
2018-05-15T04:59:29.312Z,930.68
2018-05-15T05:00:29.313Z,930.67
2018-05-15T05:01:29.311Z,930.69
2018-05-15T05:02:29.314Z,930.71
2018-05-15T05:03:29.310Z,930.71
2018-05-15T05:04:29.311Z,930.74
2018-05-15T05:05:29.306Z,930.76
2018-05-15T05:06:29.307Z,930.76
2018-05-15T05:07:29.305Z,930.76
2018-05-15T05:08:29.304Z,930.81
2018-05-15T05:09:29.305Z,930.75
2018-05-15T05:10:29.302Z,930.77
2018-05-15T05:11:29.305Z,930.78
2018-05-15T05:12:29.299Z,930.79
2018-05-15T05:13:29.299Z,930.82
2018-05-15T05:14:29.298Z,930.83
2018-05-15T05:15:29.296Z,930.83
2018-05-15T05:16:29.296Z,930.83
2018-05-15T05:17:29.294Z,930.82
2018-05-15T05:18:29.294Z,930.83
2018-05-15T05:19:29.292Z,930.85
2018-05-15T05:20:29.293Z,930.83
2018-05-15T05:21:29.290Z,930.87
2018-05-15T05:22:29.290Z,930.84
2018-05-15T05:23:29.289Z,930.85
2018-05-15T05:24:29.290Z,930.92
2018-05-15T05:25:29.286Z,930.92
2018-05-15T05:26:29.285Z,930.90
2018-05-15T05:27:29.287Z,930.92
2018-05-15T05:28:29.286Z,930.92
2018-05-15T05:29:29.283Z,930.92
2018-05-15T05:30:29.283Z,930.91
2018-05-15T05:31:29.282Z,930.93
2018-05-15T05:32:29.282Z,930.93
2018-05-15T05:33:29.281Z,930.91
2018-05-15T05:34:29.279Z,930.95
2018-05-15T05:35:29.278Z,930.90
2018-05-15T05:36:29.280Z,930.90
2018-05-15T05:37:29.276Z,930.91
2018-05-15T05:38:29.276Z,930.90
2018-05-15T05:39:29.276Z,930.94
2018-05-15T05:40:29.275Z,930.95
2018-05-15T05:41:29.274Z,930.94
2018-05-15T05:42:29.274Z,930.96
2018-05-15T05:43:29.272Z,930.95
2018-05-15T05:44:29.271Z,930.95
2018-05-15T05:45:29.271Z,930.96
2018-05-15T05:46:29.329Z,930.96
2018-05-15T05:47:29.269Z,930.97
2018-05-15T05:48:29.274Z,930.98
2018-05-15T05:49:29.268Z,931.02
2018-05-15T05:50:29.266Z,931.06
2018-05-15T05:51:29.268Z,931.03
2018-05-15T05:52:29.267Z,931.04
2018-05-15T05:53:29.272Z,931.08
2018-05-15T05:54:29.263Z,931.11
2018-05-15T05:55:29.264Z,931.09
2018-05-15T05:56:29.261Z,931.12
2018-05-15T05:57:29.273Z,931.09
2018-05-15T05:58:29.260Z,931.09
2018-05-15T05:59:29.259Z,931.11
2018-05-15T06:00:29.258Z,931.15
2018-05-15T06:01:29.257Z,931.15
2018-05-15T06:02:29.257Z,931.14
2018-05-15T06:03:29.256Z,931.15
2018-05-15T06:04:29.256Z,931.13
2018-05-15T06:05:29.255Z,931.17
2018-05-15T06:06:29.254Z,931.20
2018-05-15T06:07:29.279Z,931.21
2018-05-15T06:08:29.392Z,931.20
2018-05-15T06:09:29.256Z,931.26
2018-05-15T06:10:29.259Z,931.23
2018-05-15T06:11:29.251Z,931.26
2018-05-15T06:12:29.250Z,931.21
2018-05-15T06:13:29.248Z,931.22
2018-05-15T06:14:29.249Z,931.22
2018-05-15T06:15:29.249Z,931.24
2018-05-15T06:16:29.247Z,931.25
2018-05-15T06:17:29.247Z,931.25
2018-05-15T06:18:29.246Z,931.30
2018-05-15T06:19:29.244Z,931.30
2018-05-15T06:20:29.245Z,931.28
2018-05-15T06:21:29.243Z,931.31
2018-05-15T06:22:29.242Z,931.33
2018-05-15T06:23:29.246Z,931.32
2018-05-15T06:24:29.241Z,931.34
2018-05-15T06:25:29.241Z,931.34
2018-05-15T06:26:29.242Z,931.35
2018-05-15T06:27:29.349Z,931.29
2018-05-15T06:28:29.576Z,931.32
2018-05-15T06:29:29.239Z,931.32
2018-05-15T06:30:29.239Z,931.34
2018-05-15T06:31:29.241Z,931.33
2018-05-15T06:32:29.276Z,931.37
2018-05-15T06:33:29.236Z,931.35
2018-05-15T06:34:29.235Z,931.35
2018-05-15T06:35:29.235Z,931.38
2018-05-15T06:36:29.235Z,931.34
2018-05-15T06:37:29.237Z,931.37
2018-05-15T06:38:29.253Z,931.39
2018-05-15T06:39:29.236Z,931.39
2018-05-15T06:40:29.493Z,931.41
2018-05-15T06:41:29.230Z,931.41
2018-05-15T06:42:29.233Z,931.44
2018-05-15T06:43:29.232Z,931.43
2018-05-15T06:44:29.230Z,931.44
2018-05-15T06:45:29.229Z,931.43
2018-05-15T06:46:29.229Z,931.39
2018-05-15T06:47:29.229Z,931.41
2018-05-15T06:48:29.229Z,931.41
2018-05-15T06:49:29.227Z,931.42
2018-05-15T06:50:29.285Z,931.43
2018-05-15T06:51:29.227Z,931.42
2018-05-15T06:52:29.226Z,931.42
2018-05-15T06:53:29.225Z,931.43
2018-05-15T06:54:29.225Z,931.44
2018-05-15T06:55:29.224Z,931.42
2018-05-15T06:56:29.225Z,931.42
2018-05-15T06:57:29.305Z,931.44
2018-05-15T06:58:29.223Z,931.46
2018-05-15T06:59:29.320Z,931.44
2018-05-15T07:00:29.221Z,931.43
2018-05-15T07:01:29.221Z,931.44
2018-05-15T07:02:29.222Z,931.47
2018-05-15T07:03:29.220Z,931.48
2018-05-15T07:04:29.220Z,931.49
2018-05-15T07:05:29.335Z,931.47
2018-05-15T07:06:29.222Z,931.49
2018-05-15T07:07:29.218Z,931.49
2018-05-15T07:08:29.223Z,931.53
2018-05-15T07:09:29.253Z,931.49
2018-05-15T07:10:29.271Z,931.52
2018-05-15T07:11:29.217Z,931.51
2018-05-15T07:12:29.219Z,931.52
2018-05-15T07:13:29.215Z,931.51
2018-05-15T07:14:29.215Z,931.54
2018-05-15T07:15:29.214Z,931.53
2018-05-15T07:16:29.214Z,931.54
2018-05-15T07:17:29.213Z,931.56
2018-05-15T07:18:29.212Z,931.54
2018-05-15T07:19:29.221Z,931.54
2018-05-15T07:20:29.214Z,931.52
2018-05-15T07:21:29.211Z,931.58
2018-05-15T07:22:29.211Z,931.58
2018-05-15T07:23:29.212Z,931.55
2018-05-15T07:24:29.211Z,931.58
2018-05-15T07:25:29.210Z,931.60
2018-05-15T07:26:29.216Z,931.60
2018-05-15T07:27:29.280Z,931.55
2018-05-15T07:28:29.209Z,931.57
2018-05-15T07:29:29.210Z,931.55
2018-05-15T07:30:29.209Z,931.58
2018-05-15T07:31:29.208Z,931.58
2018-05-15T07:32:29.212Z,931.58
2018-05-15T07:33:29.207Z,931.58
2018-05-15T07:34:29.208Z,931.62
2018-05-15T07:35:29.208Z,931.59
2018-05-15T07:36:29.207Z,931.58
2018-05-15T07:37:29.207Z,931.59
2018-05-15T07:38:29.418Z,931.57
2018-05-15T07:39:29.205Z,931.59
2018-05-15T07:40:29.209Z,931.57
2018-05-15T07:41:29.205Z,931.61
2018-05-15T07:42:29.206Z,931.62
2018-05-15T07:43:29.206Z,931.60
2018-05-15T07:44:29.209Z,931.62
2018-05-15T07:45:29.205Z,931.64
2018-05-15T07:46:29.206Z,931.67
2018-05-15T07:47:29.205Z,931.66
2018-05-15T07:48:29.205Z,931.66
2018-05-15T07:49:29.205Z,931.69
2018-05-15T07:50:29.203Z,931.67
2018-05-15T07:51:29.205Z,931.67
2018-05-15T07:52:29.395Z,931.70
2018-05-15T07:53:29.203Z,931.68
2018-05-15T07:54:29.207Z,931.68
2018-05-15T07:55:29.204Z,931.69
2018-05-15T07:56:29.203Z,931.64
2018-05-15T07:57:29.220Z,931.66
2018-05-15T07:58:29.285Z,931.70
2018-05-15T07:59:29.203Z,931.67
2018-05-15T08:00:29.203Z,931.66
2018-05-15T08:01:29.204Z,931.65
2018-05-15T08:02:29.202Z,931.68
2018-05-15T08:03:29.202Z,931.63
2018-05-15T08:04:29.216Z,931.66
2018-05-15T08:05:29.202Z,931.68
2018-05-15T08:06:29.201Z,931.67
2018-05-15T08:07:29.200Z,931.62
2018-05-15T08:08:29.200Z,931.63
2018-05-15T08:09:29.200Z,931.65
2018-05-15T08:10:29.200Z,931.65
2018-05-15T08:11:29.203Z,931.64
2018-05-15T08:12:29.204Z,931.64
2018-05-15T08:13:29.199Z,931.61
2018-05-15T08:14:29.201Z,931.61
2018-05-15T08:15:29.200Z,931.63
2018-05-15T08:16:29.200Z,931.64
2018-05-15T08:17:29.201Z,931.65
2018-05-15T08:18:29.200Z,931.62
2018-05-15T08:19:29.205Z,931.62
2018-05-15T08:20:29.201Z,931.62
2018-05-15T08:21:29.200Z,931.62
2018-05-15T08:22:29.205Z,931.65
2018-05-15T08:23:29.201Z,931.63
2018-05-15T08:24:29.203Z,931.68
2018-05-15T08:25:29.202Z,931.66
2018-05-15T08:26:29.202Z,931.73
2018-05-15T08:27:29.205Z,931.69
2018-05-15T08:28:29.206Z,931.71
2018-05-15T08:29:29.209Z,931.74
2018-05-15T08:30:29.205Z,931.78
2018-05-15T08:31:29.202Z,931.78
2018-05-15T08:32:29.203Z,931.78
2018-05-15T08:33:29.204Z,931.80
2018-05-15T08:34:29.203Z,931.81
2018-05-15T08:35:29.205Z,931.80
2018-05-15T08:36:29.204Z,931.79
2018-05-15T08:37:29.223Z,931.77
2018-05-15T08:38:29.205Z,931.82
2018-05-15T08:39:29.208Z,931.83
2018-05-15T08:40:29.206Z,931.86
2018-05-15T08:41:29.209Z,931.86
2018-05-15T08:42:29.208Z,931.96
2018-05-15T08:43:29.210Z,931.98
2018-05-15T08:44:29.210Z,931.90
2018-05-15T08:45:29.249Z,931.86
2018-05-15T08:46:29.211Z,931.87
2018-05-15T08:47:29.213Z,931.83
2018-05-15T08:48:29.215Z,931.87
2018-05-15T08:49:29.216Z,931.87
2018-05-15T08:50:29.220Z,931.89
2018-05-15T08:51:29.234Z,931.87
2018-05-15T08:52:29.226Z,931.88
2018-05-15T08:53:29.230Z,931.89
2018-05-15T08:54:29.345Z,931.87
2018-05-15T08:55:29.229Z,931.86
2018-05-15T08:56:29.233Z,931.87
2018-05-15T08:57:29.233Z,931.85
2018-05-15T08:58:29.236Z,931.87
2018-05-15T08:59:29.554Z,931.86
2018-05-15T09:00:29.242Z,931.85
2018-05-15T09:01:29.245Z,931.87
2018-05-15T09:02:29.250Z,931.86
2018-05-15T09:03:29.257Z,931.88
2018-05-15T09:04:29.250Z,931.92
2018-05-15T09:05:29.574Z,931.88
2018-05-15T09:06:29.253Z,931.87
2018-05-15T09:07:29.254Z,931.86
2018-05-15T09:08:29.261Z,931.85
2018-05-15T09:09:29.257Z,931.85
2018-05-15T09:10:29.259Z,931.93
2018-05-15T09:11:29.261Z,931.90
2018-05-15T09:12:29.262Z,931.94
2018-05-15T09:13:29.264Z,931.95
2018-05-15T09:14:29.265Z,931.94
2018-05-15T09:15:29.267Z,931.93
2018-05-15T09:16:29.268Z,931.91
2018-05-15T09:17:29.269Z,931.93
2018-05-15T09:18:29.271Z,931.92
2018-05-15T09:19:29.762Z,931.92
2018-05-15T09:20:29.274Z,931.97
2018-05-15T09:21:29.274Z,931.95
2018-05-15T09:22:29.276Z,931.95
2018-05-15T09:23:29.277Z,931.94
2018-05-15T09:24:30.007Z,931.95
2018-05-15T09:25:29.297Z,931.94
2018-05-15T09:26:29.281Z,931.97
2018-05-15T09:27:29.285Z,931.97
2018-05-15T09:28:29.287Z,931.97
2018-05-15T09:29:29.284Z,931.95
2018-05-15T09:30:29.294Z,931.97
2018-05-15T09:31:29.289Z,931.96
2018-05-15T09:32:29.292Z,931.97
2018-05-15T09:33:29.293Z,931.95
2018-05-15T09:34:29.295Z,931.91
2018-05-15T09:35:29.297Z,931.92
2018-05-15T09:36:29.622Z,931.89
2018-05-15T09:37:29.527Z,931.98
2018-05-15T09:38:29.457Z,932.00
2018-05-15T09:39:29.669Z,931.95
2018-05-15T09:40:29.562Z,932.00
2018-05-15T09:41:29.314Z,932.04
2018-05-15T09:42:29.475Z,932.05
2018-05-15T09:43:29.326Z,932.06
2018-05-15T09:44:29.334Z,932.03
2018-05-15T09:45:29.333Z,931.98
2018-05-15T09:46:29.338Z,932.00
2018-05-15T09:47:29.347Z,932.01
2018-05-15T09:48:29.623Z,931.95
2018-05-15T09:49:29.350Z,931.99
2018-05-15T09:50:29.354Z,931.94
2018-05-15T09:51:29.359Z,931.97
2018-05-15T09:52:29.365Z,931.96
2018-05-15T09:53:29.368Z,931.98
2018-05-15T09:54:29.371Z,931.99
2018-05-15T09:55:29.376Z,931.97
2018-05-15T09:56:29.378Z,931.98
2018-05-15T09:57:29.381Z,931.97
2018-05-15T09:58:29.389Z,931.97
2018-05-15T09:59:29.390Z,931.96
2018-05-15T10:00:29.392Z,931.94
2018-05-15T10:01:29.394Z,931.99
2018-05-15T10:02:29.398Z,931.93
2018-05-15T10:03:29.400Z,931.91
2018-05-15T10:04:29.404Z,931.91
2018-05-15T10:05:29.405Z,931.97
2018-05-15T10:06:29.407Z,931.98
2018-05-15T10:07:29.409Z,931.97
2018-05-15T10:08:29.414Z,931.96
2018-05-15T10:09:29.414Z,931.94
2018-05-15T10:10:29.418Z,931.94
2018-05-15T10:11:29.420Z,931.95
2018-05-15T10:12:29.424Z,931.91
2018-05-15T10:13:29.424Z,931.91
2018-05-15T10:14:29.514Z,931.96
2018-05-15T10:15:29.514Z,931.96
2018-05-15T10:16:29.431Z,931.96
2018-05-15T10:17:29.440Z,931.90
2018-05-15T10:18:29.435Z,931.91
2018-05-15T10:19:29.437Z,931.90
2018-05-15T10:20:29.441Z,931.94
2018-05-15T10:21:29.448Z,931.92
2018-05-15T10:22:29.443Z,931.94
2018-05-15T10:23:29.444Z,931.94
2018-05-15T10:24:29.445Z,931.94
2018-05-15T10:25:29.445Z,931.99
2018-05-15T10:26:29.449Z,931.96
2018-05-15T10:27:29.449Z,931.95
2018-05-15T10:28:29.451Z,931.94
2018-05-15T10:29:29.451Z,931.95
2018-05-15T10:30:29.458Z,931.98
2018-05-15T10:31:29.906Z,931.94
2018-05-15T10:32:29.478Z,931.94
2018-05-15T10:33:29.517Z,931.95
2018-05-15T10:34:29.460Z,931.93
2018-05-15T10:35:29.458Z,931.93
2018-05-15T10:36:29.460Z,931.93
2018-05-15T10:37:29.459Z,931.95
2018-05-15T10:38:29.461Z,931.92
2018-05-15T10:39:29.464Z,931.96
2018-05-15T10:40:29.464Z,931.95
2018-05-15T10:41:29.463Z,931.90
2018-05-15T10:42:29.467Z,931.94
2018-05-15T10:43:29.467Z,931.92
2018-05-15T10:44:29.467Z,931.92
2018-05-15T10:45:29.469Z,931.93
2018-05-15T10:46:29.469Z,931.97
2018-05-15T10:47:29.471Z,931.99
2018-05-15T10:48:29.471Z,932.02
2018-05-15T10:49:29.473Z,932.01
2018-05-15T10:50:29.474Z,932.01
2018-05-15T10:51:29.475Z,932.01
2018-05-15T10:52:29.476Z,932.05
2018-05-15T10:53:29.476Z,932.03
2018-05-15T10:54:29.475Z,932.00
2018-05-15T10:55:29.478Z,931.97
2018-05-15T10:56:29.479Z,931.96
2018-05-15T10:57:29.478Z,931.94
2018-05-15T10:58:29.553Z,931.89
2018-05-15T10:59:29.494Z,931.86
2018-05-15T11:00:29.481Z,931.88
2018-05-15T11:01:29.479Z,931.86
2018-05-15T11:02:29.479Z,931.86
2018-05-15T11:03:29.481Z,931.82
2018-05-15T11:04:29.481Z,931.78
2018-05-15T11:05:29.483Z,931.81
2018-05-15T11:06:29.481Z,931.80
2018-05-15T11:07:29.482Z,931.79
2018-05-15T11:08:29.487Z,931.79
2018-05-15T11:09:29.481Z,931.77
2018-05-15T11:10:29.484Z,931.77
2018-05-15T11:11:29.483Z,931.77
2018-05-15T11:12:29.484Z,931.81
2018-05-15T11:13:29.485Z,931.86
2018-05-15T11:14:29.484Z,931.89
2018-05-15T11:15:29.486Z,931.84
2018-05-15T11:16:29.488Z,931.87
2018-05-15T11:17:29.488Z,931.87
2018-05-15T11:18:29.489Z,931.83
2018-05-15T11:19:29.565Z,931.86
2018-05-15T11:20:29.493Z,931.83
2018-05-15T11:21:29.494Z,931.79
2018-05-15T11:22:29.497Z,931.77
2018-05-15T11:23:29.498Z,931.81
2018-05-15T11:24:29.584Z,931.79
2018-05-15T11:25:29.501Z,931.79
2018-05-15T11:26:29.504Z,931.79
2018-05-15T11:27:29.505Z,931.78
2018-05-15T11:28:29.509Z,931.81
2018-05-15T11:29:29.763Z,931.81
2018-05-15T11:30:29.568Z,931.78
2018-05-15T11:31:29.516Z,931.76
2018-05-15T11:32:29.520Z,931.78
2018-05-15T11:33:29.850Z,931.85
2018-05-15T11:34:29.527Z,931.83
2018-05-15T11:35:29.531Z,931.81
2018-05-15T11:36:29.534Z,931.83
2018-05-15T11:37:29.540Z,931.90
2018-05-15T11:38:29.543Z,931.94
2018-05-15T11:39:29.547Z,931.93
2018-05-15T11:40:29.552Z,931.90
2018-05-15T11:41:29.586Z,931.91
2018-05-15T11:42:29.561Z,931.92
2018-05-15T11:43:29.566Z,931.94
2018-05-15T11:44:29.578Z,931.88
2018-05-15T11:45:29.577Z,931.88
2018-05-15T11:46:29.584Z,931.89
2018-05-15T11:47:29.618Z,931.87
2018-05-15T11:48:29.983Z,931.84
2018-05-15T11:49:30.429Z,931.85
2018-05-15T11:50:30.096Z,931.84
2018-05-15T11:51:30.450Z,931.87
2018-05-15T11:52:30.205Z,931.86
2018-05-15T11:53:29.623Z,931.85
2018-05-15T11:54:29.629Z,931.81
2018-05-15T11:55:35.291Z,931.84
2018-05-15T11:56:29.648Z,931.79
2018-05-15T11:57:29.857Z,931.77
2018-05-15T11:58:29.650Z,931.75
2018-05-15T11:59:29.709Z,931.78
2018-05-15T12:00:29.662Z,931.77
2018-05-15T12:01:29.669Z,931.73
2018-05-15T12:02:29.728Z,931.74
2018-05-15T12:03:29.677Z,931.77
2018-05-15T12:04:29.681Z,931.77
2018-05-15T12:05:29.686Z,931.74
2018-05-15T12:06:29.732Z,931.70
2018-05-15T12:07:29.696Z,931.74
2018-05-15T12:08:29.726Z,931.74
2018-05-15T12:09:29.704Z,931.69
2018-05-15T12:10:29.797Z,931.71
2018-05-15T12:11:29.995Z,931.67
2018-05-15T12:12:29.717Z,931.71
2018-05-15T12:13:29.719Z,931.73
2018-05-15T12:14:29.736Z,931.74
2018-05-15T12:15:29.727Z,931.80
2018-05-15T12:16:29.732Z,931.77
2018-05-15T12:17:29.734Z,931.72
2018-05-15T12:18:29.824Z,931.72
2018-05-15T12:19:29.741Z,931.72
2018-05-15T12:20:29.745Z,931.70
2018-05-15T12:21:29.747Z,931.68
2018-05-15T12:22:29.750Z,931.72
2018-05-15T12:23:29.754Z,931.76
2018-05-15T12:24:29.777Z,931.76
2018-05-15T12:25:29.759Z,931.88
2018-05-15T12:26:29.762Z,931.86
2018-05-15T12:27:29.764Z,931.87
2018-05-15T12:28:29.768Z,931.87